sensor_id;sensor_type;location;lat;lon;timestamp;P1;durP1;ratioP1;P2;durP2;ratioP2
65879;SDS011;52661;51.364;6.054;2024-01-06T00:02:00;7.70;;;3.42;;
65879;SDS011;52661;51.364;6.054;2024-01-06T00:04:25;7.45;;;3.33;;
65879;SDS011;52661;51.364;6.054;2024-01-06T00:06:50;8.17;;;2.80;;
65879;SDS011;52661;51.364;6.054;2024-01-06T00:09:16;9.00;;;4.10;;
65879;SDS011;52661;51.364;6.054;2024-01-06T00:11:41;7.20;;;2.83;;
65879;SDS011;52661;51.364;6.054;2024-01-06T00:14:06;12.10;;;3.77;;
65879;SDS011;52661;51.364;6.054;2024-01-06T00:16:32;8.33;;;3.07;;
65879;SDS011;52661;51.364;6.054;2024-01-06T00:18:57;10.10;;;3.37;;
65879;SDS011;52661;51.364;6.054;2024-01-06T00:21:24;13.77;;;3.65;;
65879;SDS011;52661;51.364;6.054;2024-01-06T00:23:50;8.40;;;3.25;;
65879;SDS011;52661;51.364;6.054;2024-01-06T00:26:15;11.33;;;4.13;;
65879;SDS011;52661;51.364;6.054;2024-01-06T00:28:40;10.75;;;3.67;;
65879;SDS011;52661;51.364;6.054;2024-01-06T00:31:06;11.52;;;4.10;;
65879;SDS011;52661;51.364;6.054;2024-01-06T00:33:31;8.93;;;3.47;;
65879;SDS011;52661;51.364;6.054;2024-01-06T00:35:56;11.02;;;3.83;;
65879;SDS011;52661;51.364;6.054;2024-01-06T00:38:22;10.60;;;3.60;;
65879;SDS011;52661;51.364;6.054;2024-01-06T00:40:47;9.60;;;2.60;;
65879;SDS011;52661;51.364;6.054;2024-01-06T00:43:13;12.38;;;4.40;;
65879;SDS011;52661;51.364;6.054;2024-01-06T00:45:38;9.53;;;3.67;;
65879;SDS011;52661;51.364;6.054;2024-01-06T00:48:03;13.63;;;5.00;;
65879;SDS011;52661;51.364;6.054;2024-01-06T00:50:29;14.30;;;4.60;;
65879;SDS011;52661;51.364;6.054;2024-01-06T00:52:54;11.93;;;4.77;;
65879;SDS011;52661;51.364;6.054;2024-01-06T00:55:21;9.48;;;3.00;;
65879;SDS011;52661;51.364;6.054;2024-01-06T00:57:46;11.27;;;4.32;;
65879;SDS011;52661;51.364;6.054;2024-01-06T01:00:12;8.77;;;4.03;;
65879;SDS011;52661;51.364;6.054;2024-01-06T01:02:38;11.73;;;4.63;;
65879;SDS011;52661;51.364;6.054;2024-01-06T01:05:03;12.52;;;4.05;;
65879;SDS011;52661;51.364;6.054;2024-01-06T01:07:29;12.50;;;4.22;;
65879;SDS011;52661;51.364;6.054;2024-01-06T01:09:55;11.50;;;4.60;;
65879;SDS011;52661;51.364;6.054;2024-01-06T01:12:21;10.57;;;3.65;;
65879;SDS011;52661;51.364;6.054;2024-01-06T01:14:47;11.85;;;3.70;;
65879;SDS011;52661;51.364;6.054;2024-01-06T01:17:12;11.93;;;4.25;;
65879;SDS011;52661;51.364;6.054;2024-01-06T01:19:37;13.13;;;4.87;;
65879;SDS011;52661;51.364;6.054;2024-01-06T01:22:03;16.17;;;4.60;;
65879;SDS011;52661;51.364;6.054;2024-01-06T01:24:28;11.85;;;5.25;;
65879;SDS011;52661;51.364;6.054;2024-01-06T01:26:53;11.17;;;3.90;;
65879;SDS011;52661;51.364;6.054;2024-01-06T01:29:19;12.20;;;4.47;;
65879;SDS011;52661;51.364;6.054;2024-01-06T01:31:45;10.73;;;4.75;;
65879;SDS011;52661;51.364;6.054;2024-01-06T01:34:11;11.63;;;4.35;;
65879;SDS011;52661;51.364;6.054;2024-01-06T01:36:36;13.53;;;4.30;;
65879;SDS011;52661;51.364;6.054;2024-01-06T01:39:02;11.23;;;4.20;;
65879;SDS011;52661;51.364;6.054;2024-01-06T01:41:27;12.15;;;4.50;;
65879;SDS011;52661;51.364;6.054;2024-01-06T01:43:52;12.80;;;4.23;;
65879;SDS011;52661;51.364;6.054;2024-01-06T01:46:24;12.57;;;4.57;;
65879;SDS011;52661;51.364;6.054;2024-01-06T01:48:51;9.98;;;4.25;;
65879;SDS011;52661;51.364;6.054;2024-01-06T01:51:17;12.68;;;4.85;;
65879;SDS011;52661;51.364;6.054;2024-01-06T01:53:43;13.90;;;4.53;;
65879;SDS011;52661;51.364;6.054;2024-01-06T01:56:09;13.55;;;5.13;;
65879;SDS011;52661;51.364;6.054;2024-01-06T01:58:35;13.40;;;4.70;;
65879;SDS011;52661;51.364;6.054;2024-01-06T02:01:01;12.02;;;5.00;;
65879;SDS011;52661;51.364;6.054;2024-01-06T02:03:26;15.50;;;5.25;;
65879;SDS011;52661;51.364;6.054;2024-01-06T02:05:55;14.18;;;4.45;;
65879;SDS011;52661;51.364;6.054;2024-01-06T02:08:20;12.03;;;4.20;;
65879;SDS011;52661;51.364;6.054;2024-01-06T02:10:46;13.30;;;3.70;;
65879;SDS011;52661;51.364;6.054;2024-01-06T02:13:11;12.80;;;4.10;;
65879;SDS011;52661;51.364;6.054;2024-01-06T02:15:37;12.55;;;5.05;;
65879;SDS011;52661;51.364;6.054;2024-01-06T02:18:03;12.15;;;4.20;;
65879;SDS011;52661;51.364;6.054;2024-01-06T02:20:29;13.45;;;3.67;;
65879;SDS011;52661;51.364;6.054;2024-01-06T02:22:55;10.23;;;4.13;;
65879;SDS011;52661;51.364;6.054;2024-01-06T02:25:22;12.48;;;4.38;;
65879;SDS011;52661;51.364;6.054;2024-01-06T02:27:47;11.45;;;3.83;;
65879;SDS011;52661;51.364;6.054;2024-01-06T02:30:12;7.90;;;2.45;;
65879;SDS011;52661;51.364;6.054;2024-01-06T02:32:38;10.43;;;3.88;;
65879;SDS011;52661;51.364;6.054;2024-01-06T02:35:03;9.03;;;3.40;;
65879;SDS011;52661;51.364;6.054;2024-01-06T02:37:29;12.07;;;3.75;;
65879;SDS011;52661;51.364;6.054;2024-01-06T02:39:54;9.27;;;3.35;;
65879;SDS011;52661;51.364;6.054;2024-01-06T02:42:19;8.15;;;3.17;;
65879;SDS011;52661;51.364;6.054;2024-01-06T02:44:44;7.80;;;2.83;;
65879;SDS011;52661;51.364;6.054;2024-01-06T02:47:10;12.90;;;3.60;;
65879;SDS011;52661;51.364;6.054;2024-01-06T02:49:36;8.93;;;2.70;;
65879;SDS011;52661;51.364;6.054;2024-01-06T02:52:01;9.10;;;2.83;;
65879;SDS011;52661;51.364;6.054;2024-01-06T02:54:27;9.10;;;2.85;;
65879;SDS011;52661;51.364;6.054;2024-01-06T02:56:52;6.43;;;2.95;;
65879;SDS011;52661;51.364;6.054;2024-01-06T02:59:17;7.03;;;2.80;;
65879;SDS011;52661;51.364;6.054;2024-01-06T03:01:43;8.53;;;2.43;;
65879;SDS011;52661;51.364;6.054;2024-01-06T03:04:08;8.43;;;3.03;;
65879;SDS011;52661;51.364;6.054;2024-01-06T03:06:33;10.20;;;2.77;;
65879;SDS011;52661;51.364;6.054;2024-01-06T03:08:59;7.40;;;2.65;;
65879;SDS011;52661;51.364;6.054;2024-01-06T03:11:25;9.95;;;2.63;;
65879;SDS011;52661;51.364;6.054;2024-01-06T03:13:50;10.05;;;3.05;;
65879;SDS011;52661;51.364;6.054;2024-01-06T03:16:15;8.30;;;2.43;;
65879;SDS011;52661;51.364;6.054;2024-01-06T03:18:40;7.80;;;2.07;;
65879;SDS011;52661;51.364;6.054;2024-01-06T03:21:16;7.83;;;2.27;;
65879;SDS011;52661;51.364;6.054;2024-01-06T03:23:42;9.30;;;2.88;;
65879;SDS011;52661;51.364;6.054;2024-01-06T03:26:07;9.33;;;2.57;;
65879;SDS011;52661;51.364;6.054;2024-01-06T03:28:33;4.20;;;1.53;;
65879;SDS011;52661;51.364;6.054;2024-01-06T03:30:58;7.50;;;2.67;;
65879;SDS011;52661;51.364;6.054;2024-01-06T03:33:23;7.00;;;2.57;;
65879;SDS011;52661;51.364;6.054;2024-01-06T03:35:49;7.40;;;3.58;;
65879;SDS011;52661;51.364;6.054;2024-01-06T03:38:14;7.37;;;2.63;;
65879;SDS011;52661;51.364;6.054;2024-01-06T03:40:39;11.90;;;3.70;;
65879;SDS011;52661;51.364;6.054;2024-01-06T03:43:05;4.93;;;1.77;;
65879;SDS011;52661;51.364;6.054;2024-01-06T03:45:30;10.40;;;1.47;;
65879;SDS011;52661;51.364;6.054;2024-01-06T03:47:55;5.63;;;2.63;;
65879;SDS011;52661;51.364;6.054;2024-01-06T03:50:21;5.27;;;1.90;;
65879;SDS011;52661;51.364;6.054;2024-01-06T03:52:46;5.22;;;1.27;;
65879;SDS011;52661;51.364;6.054;2024-01-06T03:55:11;10.32;;;1.92;;
65879;SDS011;52661;51.364;6.054;2024-01-06T03:57:37;9.13;;;2.58;;
65879;SDS011;52661;51.364;6.054;2024-01-06T04:00:02;5.40;;;1.33;;
65879;SDS011;52661;51.364;6.054;2024-01-06T04:02:28;5.18;;;1.48;;
65879;SDS011;52661;51.364;6.054;2024-01-06T04:04:53;6.80;;;2.13;;
65879;SDS011;52661;51.364;6.054;2024-01-06T04:07:19;6.50;;;1.45;;
65879;SDS011;52661;51.364;6.054;2024-01-06T04:09:44;6.20;;;1.80;;
65879;SDS011;52661;51.364;6.054;2024-01-06T04:12:09;6.23;;;1.70;;
65879;SDS011;52661;51.364;6.054;2024-01-06T04:14:35;5.20;;;1.77;;
65879;SDS011;52661;51.364;6.054;2024-01-06T04:17:00;3.60;;;1.30;;
65879;SDS011;52661;51.364;6.054;2024-01-06T04:19:25;6.00;;;2.10;;
65879;SDS011;52661;51.364;6.054;2024-01-06T04:21:51;6.10;;;1.67;;
65879;SDS011;52661;51.364;6.054;2024-01-06T04:24:16;3.63;;;1.25;;
65879;SDS011;52661;51.364;6.054;2024-01-06T04:26:41;5.73;;;1.33;;
65879;SDS011;52661;51.364;6.054;2024-01-06T04:29:09;4.95;;;1.88;;
65879;SDS011;52661;51.364;6.054;2024-01-06T04:31:35;4.60;;;1.20;;
65879;SDS011;52661;51.364;6.054;2024-01-06T04:34:01;4.70;;;2.22;;
65879;SDS011;52661;51.364;6.054;2024-01-06T04:36:26;6.85;;;1.60;;
65879;SDS011;52661;51.364;6.054;2024-01-06T04:38:51;4.55;;;1.83;;
65879;SDS011;52661;51.364;6.054;2024-01-06T04:41:17;3.63;;;1.13;;
65879;SDS011;52661;51.364;6.054;2024-01-06T04:43:42;4.97;;;1.75;;
65879;SDS011;52661;51.364;6.054;2024-01-06T04:46:07;3.97;;;0.98;;
65879;SDS011;52661;51.364;6.054;2024-01-06T04:48:33;2.60;;;0.73;;
65879;SDS011;52661;51.364;6.054;2024-01-06T04:50:58;6.30;;;1.73;;
65879;SDS011;52661;51.364;6.054;2024-01-06T04:53:24;4.03;;;1.35;;
65879;SDS011;52661;51.364;6.054;2024-01-06T04:55:49;6.37;;;1.77;;
65879;SDS011;52661;51.364;6.054;2024-01-06T04:58:14;7.80;;;1.80;;
65879;SDS011;52661;51.364;6.054;2024-01-06T05:00:39;5.80;;;1.73;;
65879;SDS011;52661;51.364;6.054;2024-01-06T05:03:05;6.00;;;1.83;;
65879;SDS011;52661;51.364;6.054;2024-01-06T05:05:30;3.42;;;1.02;;
65879;SDS011;52661;51.364;6.054;2024-01-06T05:07:55;7.27;;;1.90;;
65879;SDS011;52661;51.364;6.054;2024-01-06T05:10:21;3.47;;;1.02;;
65879;SDS011;52661;51.364;6.054;2024-01-06T05:12:46;9.37;;;2.47;;
65879;SDS011;52661;51.364;6.054;2024-01-06T05:15:11;4.50;;;2.13;;
65879;SDS011;52661;51.364;6.054;2024-01-06T05:17:37;6.53;;;2.50;;
65879;SDS011;52661;51.364;6.054;2024-01-06T05:20:02;6.05;;;1.83;;
65879;SDS011;52661;51.364;6.054;2024-01-06T05:22:28;5.78;;;2.55;;
65879;SDS011;52661;51.364;6.054;2024-01-06T05:24:54;4.85;;;1.50;;
65879;SDS011;52661;51.364;6.054;2024-01-06T05:27:20;7.63;;;2.85;;
65879;SDS011;52661;51.364;6.054;2024-01-06T05:29:45;7.65;;;2.42;;
65879;SDS011;52661;51.364;6.054;2024-01-06T05:32:10;5.23;;;1.33;;
65879;SDS011;52661;51.364;6.054;2024-01-06T05:34:36;4.30;;;2.08;;
65879;SDS011;52661;51.364;6.054;2024-01-06T05:37:01;6.35;;;2.25;;
65879;SDS011;52661;51.364;6.054;2024-01-06T05:39:26;6.40;;;2.27;;
65879;SDS011;52661;51.364;6.054;2024-01-06T05:41:52;5.83;;;1.93;;
65879;SDS011;52661;51.364;6.054;2024-01-06T05:44:17;3.77;;;1.37;;
65879;SDS011;52661;51.364;6.054;2024-01-06T05:46:42;4.97;;;1.67;;
65879;SDS011;52661;51.364;6.054;2024-01-06T05:49:08;6.00;;;1.77;;
65879;SDS011;52661;51.364;6.054;2024-01-06T05:51:35;5.63;;;2.22;;
65879;SDS011;52661;51.364;6.054;2024-01-06T05:54:00;5.87;;;1.63;;
65879;SDS011;52661;51.364;6.054;2024-01-06T05:56:26;5.20;;;1.57;;
65879;SDS011;52661;51.364;6.054;2024-01-06T05:58:52;3.58;;;0.90;;
65879;SDS011;52661;51.364;6.054;2024-01-06T06:01:18;5.97;;;2.22;;
65879;SDS011;52661;51.364;6.054;2024-01-06T06:03:44;6.10;;;1.95;;
65879;SDS011;52661;51.364;6.054;2024-01-06T06:06:10;5.97;;;2.13;;
65879;SDS011;52661;51.364;6.054;2024-01-06T06:08:35;6.43;;;1.73;;
65879;SDS011;52661;51.364;6.054;2024-01-06T06:11:01;7.40;;;2.53;;
65879;SDS011;52661;51.364;6.054;2024-01-06T06:13:27;6.32;;;2.03;;
65879;SDS011;52661;51.364;6.054;2024-01-06T06:15:53;5.88;;;1.88;;
65879;SDS011;52661;51.364;6.054;2024-01-06T06:18:19;7.68;;;2.53;;
65879;SDS011;52661;51.364;6.054;2024-01-06T06:20:45;5.10;;;2.30;;
65879;SDS011;52661;51.364;6.054;2024-01-06T06:23:10;5.43;;;1.87;;
65879;SDS011;52661;51.364;6.054;2024-01-06T06:25:37;7.10;;;2.35;;
65879;SDS011;52661;51.364;6.054;2024-01-06T06:28:03;4.57;;;1.77;;
65879;SDS011;52661;51.364;6.054;2024-01-06T06:30:29;6.55;;;2.42;;
65879;SDS011;52661;51.364;6.054;2024-01-06T06:32:54;5.28;;;1.73;;
65879;SDS011;52661;51.364;6.054;2024-01-06T06:35:19;6.90;;;2.23;;
65879;SDS011;52661;51.364;6.054;2024-01-06T06:37:45;8.60;;;2.63;;
65879;SDS011;52661;51.364;6.054;2024-01-06T06:40:10;4.28;;;1.85;;
65879;SDS011;52661;51.364;6.054;2024-01-06T06:42:36;6.35;;;2.17;;
65879;SDS011;52661;51.364;6.054;2024-01-06T06:45:01;2.57;;;1.00;;
65879;SDS011;52661;51.364;6.054;2024-01-06T06:47:26;4.57;;;1.50;;
65879;SDS011;52661;51.364;6.054;2024-01-06T06:49:52;7.90;;;2.87;;
65879;SDS011;52661;51.364;6.054;2024-01-06T06:52:17;4.45;;;1.90;;
65879;SDS011;52661;51.364;6.054;2024-01-06T06:54:42;4.97;;;1.87;;
65879;SDS011;52661;51.364;6.054;2024-01-06T06:57:08;4.70;;;2.10;;
65879;SDS011;52661;51.364;6.054;2024-01-06T06:59:33;5.00;;;1.80;;
65879;SDS011;52661;51.364;6.054;2024-01-06T07:01:58;4.07;;;1.70;;
65879;SDS011;52661;51.364;6.054;2024-01-06T07:04:24;3.53;;;1.10;;
65879;SDS011;52661;51.364;6.054;2024-01-06T07:06:51;4.07;;;1.48;;
65879;SDS011;52661;51.364;6.054;2024-01-06T07:09:16;4.47;;;1.42;;
65879;SDS011;52661;51.364;6.054;2024-01-06T07:11:41;4.63;;;1.70;;
65879;SDS011;52661;51.364;6.054;2024-01-06T07:14:06;5.00;;;1.53;;
65879;SDS011;52661;51.364;6.054;2024-01-06T07:16:32;3.72;;;1.48;;
65879;SDS011;52661;51.364;6.054;2024-01-06T07:18:57;9.90;;;1.90;;
65879;SDS011;52661;51.364;6.054;2024-01-06T07:21:22;5.03;;;1.53;;
65879;SDS011;52661;51.364;6.054;2024-01-06T07:23:48;5.95;;;1.85;;
65879;SDS011;52661;51.364;6.054;2024-01-06T07:26:13;5.15;;;1.92;;
65879;SDS011;52661;51.364;6.054;2024-01-06T07:28:39;9.15;;;2.00;;
65879;SDS011;52661;51.364;6.054;2024-01-06T07:31:04;5.50;;;1.53;;
65879;SDS011;52661;51.364;6.054;2024-01-06T07:33:29;5.77;;;1.80;;
65879;SDS011;52661;51.364;6.054;2024-01-06T07:35:55;5.47;;;1.88;;
65879;SDS011;52661;51.364;6.054;2024-01-06T07:38:20;7.13;;;2.15;;
65879;SDS011;52661;51.364;6.054;2024-01-06T07:40:46;5.67;;;1.53;;
65879;SDS011;52661;51.364;6.054;2024-01-06T07:43:11;4.97;;;1.38;;
65879;SDS011;52661;51.364;6.054;2024-01-06T07:45:36;7.57;;;1.93;;
65879;SDS011;52661;51.364;6.054;2024-01-06T07:48:02;5.47;;;1.30;;
65879;SDS011;52661;51.364;6.054;2024-01-06T07:50:28;4.63;;;1.90;;
65879;SDS011;52661;51.364;6.054;2024-01-06T07:52:53;4.45;;;1.27;;
65879;SDS011;52661;51.364;6.054;2024-01-06T07:55:19;6.15;;;2.05;;
65879;SDS011;52661;51.364;6.054;2024-01-06T07:57:44;3.40;;;1.35;;
65879;SDS011;52661;51.364;6.054;2024-01-06T08:00:10;5.80;;;2.15;;
65879;SDS011;52661;51.364;6.054;2024-01-06T08:02:39;7.30;;;2.17;;
65879;SDS011;52661;51.364;6.054;2024-01-06T08:05:05;5.82;;;1.65;;
65879;SDS011;52661;51.364;6.054;2024-01-06T08:07:31;6.15;;;2.33;;
65879;SDS011;52661;51.364;6.054;2024-01-06T08:09:57;7.85;;;2.03;;
65879;SDS011;52661;51.364;6.054;2024-01-06T08:12:22;6.90;;;1.70;;
65879;SDS011;52661;51.364;6.054;2024-01-06T08:14:48;2.87;;;0.70;;
65879;SDS011;52661;51.364;6.054;2024-01-06T08:17:13;7.00;;;2.97;;
65879;SDS011;52661;51.364;6.054;2024-01-06T08:19:39;6.90;;;2.53;;
65879;SDS011;52661;51.364;6.054;2024-01-06T08:22:04;5.28;;;1.58;;
65879;SDS011;52661;51.364;6.054;2024-01-06T08:24:29;4.78;;;1.85;;
65879;SDS011;52661;51.364;6.054;2024-01-06T08:26:55;5.87;;;1.87;;
65879;SDS011;52661;51.364;6.054;2024-01-06T08:29:20;5.70;;;2.47;;
65879;SDS011;52661;51.364;6.054;2024-01-06T08:31:45;11.30;;;2.55;;
65879;SDS011;52661;51.364;6.054;2024-01-06T08:34:11;5.55;;;2.15;;
65879;SDS011;52661;51.364;6.054;2024-01-06T08:36:36;8.43;;;2.20;;
65879;SDS011;52661;51.364;6.054;2024-01-06T08:39:02;3.85;;;1.30;;
65879;SDS011;52661;51.364;6.054;2024-01-06T08:41:27;5.05;;;1.95;;
65879;SDS011;52661;51.364;6.054;2024-01-06T08:43:53;7.33;;;2.40;;
65879;SDS011;52661;51.364;6.054;2024-01-06T08:46:19;5.63;;;1.77;;
65879;SDS011;52661;51.364;6.054;2024-01-06T08:48:44;7.60;;;1.45;;
65879;SDS011;52661;51.364;6.054;2024-01-06T08:51:09;4.50;;;1.73;;
65879;SDS011;52661;51.364;6.054;2024-01-06T08:53:35;6.67;;;1.60;;
65879;SDS011;52661;51.364;6.054;2024-01-06T08:56:00;3.93;;;1.30;;
65879;SDS011;52661;51.364;6.054;2024-01-06T08:58:25;3.53;;;1.17;;
65879;SDS011;52661;51.364;6.054;2024-01-06T09:00:51;6.68;;;2.58;;
65879;SDS011;52661;51.364;6.054;2024-01-06T09:03:18;4.18;;;1.50;;
65879;SDS011;52661;51.364;6.054;2024-01-06T09:05:50;6.40;;;2.10;;
65879;SDS011;52661;51.364;6.054;2024-01-06T09:08:16;7.22;;;3.03;;
65879;SDS011;52661;51.364;6.054;2024-01-06T09:10:41;7.97;;;3.10;;
65879;SDS011;52661;51.364;6.054;2024-01-06T09:13:08;6.95;;;2.42;;
65879;SDS011;52661;51.364;6.054;2024-01-06T09:15:33;7.22;;;2.15;;
65879;SDS011;52661;51.364;6.054;2024-01-06T09:17:58;6.43;;;2.13;;
65879;SDS011;52661;51.364;6.054;2024-01-06T09:20:24;5.13;;;1.95;;
65879;SDS011;52661;51.364;6.054;2024-01-06T09:22:49;7.97;;;2.20;;
65879;SDS011;52661;51.364;6.054;2024-01-06T09:25:15;5.68;;;2.10;;
65879;SDS011;52661;51.364;6.054;2024-01-06T09:27:40;7.43;;;2.35;;
65879;SDS011;52661;51.364;6.054;2024-01-06T09:30:06;4.40;;;2.23;;
65879;SDS011;52661;51.364;6.054;2024-01-06T09:32:33;7.43;;;2.92;;
65879;SDS011;52661;51.364;6.054;2024-01-06T09:34:58;9.30;;;2.70;;
65879;SDS011;52661;51.364;6.054;2024-01-06T09:37:24;8.47;;;2.80;;
65879;SDS011;52661;51.364;6.054;2024-01-06T09:39:49;7.27;;;2.20;;
65879;SDS011;52661;51.364;6.054;2024-01-06T09:42:14;8.83;;;2.50;;
65879;SDS011;52661;51.364;6.054;2024-01-06T09:44:40;6.35;;;2.25;;
65879;SDS011;52661;51.364;6.054;2024-01-06T09:47:05;7.38;;;2.67;;
65879;SDS011;52661;51.364;6.054;2024-01-06T09:49:31;7.95;;;3.15;;
65879;SDS011;52661;51.364;6.054;2024-01-06T09:52:00;9.55;;;3.15;;
65879;SDS011;52661;51.364;6.054;2024-01-06T09:54:27;6.85;;;2.50;;
65879;SDS011;52661;51.364;6.054;2024-01-06T09:56:58;6.18;;;2.25;;
65879;SDS011;52661;51.364;6.054;2024-01-06T09:59:25;6.97;;;2.67;;
65879;SDS011;52661;51.364;6.054;2024-01-06T10:01:51;4.70;;;1.77;;
65879;SDS011;52661;51.364;6.054;2024-01-06T10:04:18;8.57;;;2.85;;
65879;SDS011;52661;51.364;6.054;2024-01-06T10:06:43;4.55;;;1.80;;
65879;SDS011;52661;51.364;6.054;2024-01-06T10:09:09;7.63;;;2.47;;
65879;SDS011;52661;51.364;6.054;2024-01-06T10:11:36;7.10;;;2.00;;
65879;SDS011;52661;51.364;6.054;2024-01-06T10:14:02;8.60;;;2.40;;
65879;SDS011;52661;51.364;6.054;2024-01-06T10:16:30;4.80;;;1.80;;
65879;SDS011;52661;51.364;6.054;2024-01-06T10:18:56;4.88;;;1.35;;
65879;SDS011;52661;51.364;6.054;2024-01-06T10:21:21;6.15;;;3.00;;
65879;SDS011;52661;51.364;6.054;2024-01-06T10:23:47;7.18;;;1.80;;
65879;SDS011;52661;51.364;6.054;2024-01-06T10:26:13;9.38;;;2.60;;
65879;SDS011;52661;51.364;6.054;2024-01-06T10:28:38;6.43;;;2.67;;
65879;SDS011;52661;51.364;6.054;2024-01-06T10:31:04;4.23;;;1.80;;
65879;SDS011;52661;51.364;6.054;2024-01-06T10:35:32;6.45;;;2.28;;
65879;SDS011;52661;51.364;6.054;2024-01-06T10:37:57;6.55;;;2.78;;
65879;SDS011;52661;51.364;6.054;2024-01-06T10:40:23;6.88;;;2.20;;
65879;SDS011;52661;51.364;6.054;2024-01-06T10:42:48;4.93;;;2.23;;
65879;SDS011;52661;51.364;6.054;2024-01-06T10:45:14;5.37;;;3.63;;
65879;SDS011;52661;51.364;6.054;2024-01-06T10:47:40;6.13;;;2.65;;
65879;SDS011;52661;51.364;6.054;2024-01-06T10:50:08;6.55;;;3.22;;
65879;SDS011;52661;51.364;6.054;2024-01-06T10:52:34;3.33;;;1.25;;
65879;SDS011;52661;51.364;6.054;2024-01-06T10:55:02;4.07;;;2.67;;
65879;SDS011;52661;51.364;6.054;2024-01-06T10:57:29;3.78;;;1.83;;
65879;SDS011;52661;51.364;6.054;2024-01-06T10:59:57;5.38;;;2.15;;
65879;SDS011;52661;51.364;6.054;2024-01-06T11:02:23;4.85;;;2.50;;
65879;SDS011;52661;51.364;6.054;2024-01-06T11:04:50;8.07;;;1.95;;
65879;SDS011;52661;51.364;6.054;2024-01-06T11:07:19;11.88;;;3.92;;
65879;SDS011;52661;51.364;6.054;2024-01-06T11:09:47;5.80;;;3.03;;
65879;SDS011;52661;51.364;6.054;2024-01-06T11:12:16;10.68;;;3.13;;
65879;SDS011;52661;51.364;6.054;2024-01-06T11:14:42;7.65;;;2.75;;
65879;SDS011;52661;51.364;6.054;2024-01-06T11:17:07;6.55;;;3.13;;
65879;SDS011;52661;51.364;6.054;2024-01-06T11:22:20;6.67;;;3.30;;
65879;SDS011;52661;51.364;6.054;2024-01-06T11:24:55;7.82;;;3.38;;
65879;SDS011;52661;51.364;6.054;2024-01-06T11:27:25;11.07;;;3.58;;
65879;SDS011;52661;51.364;6.054;2024-01-06T11:29:53;5.55;;;1.45;;
65879;SDS011;52661;51.364;6.054;2024-01-06T11:32:30;8.13;;;3.53;;
65879;SDS011;52661;51.364;6.054;2024-01-06T11:40:03;9.52;;;3.28;;
65879;SDS011;52661;51.364;6.054;2024-01-06T11:42:32;12.00;;;4.88;;
65879;SDS011;52661;51.364;6.054;2024-01-06T11:45:01;8.30;;;4.53;;
65879;SDS011;52661;51.364;6.054;2024-01-06T11:47:27;6.10;;;3.75;;
65879;SDS011;52661;51.364;6.054;2024-01-06T11:52:21;5.57;;;1.55;;
65879;SDS011;52661;51.364;6.054;2024-01-06T11:54:46;11.13;;;3.33;;
65879;SDS011;52661;51.364;6.054;2024-01-06T11:57:12;9.80;;;4.75;;
65879;SDS011;52661;51.364;6.054;2024-01-06T11:59:37;6.37;;;4.00;;
65879;SDS011;52661;51.364;6.054;2024-01-06T12:02:03;4.60;;;2.10;;
65879;SDS011;52661;51.364;6.054;2024-01-06T12:04:28;7.80;;;2.33;;
65879;SDS011;52661;51.364;6.054;2024-01-06T12:07:04;9.75;;;3.20;;
65879;SDS011;52661;51.364;6.054;2024-01-06T12:09:30;4.50;;;1.95;;
65879;SDS011;52661;51.364;6.054;2024-01-06T12:12:04;7.30;;;3.80;;
65879;SDS011;52661;51.364;6.054;2024-01-06T12:14:30;12.50;;;4.05;;
65879;SDS011;52661;51.364;6.054;2024-01-06T12:16:58;8.95;;;3.25;;
65879;SDS011;52661;51.364;6.054;2024-01-06T12:19:31;8.88;;;3.42;;
65879;SDS011;52661;51.364;6.054;2024-01-06T12:21:57;7.65;;;4.38;;
65879;SDS011;52661;51.364;6.054;2024-01-06T12:24:23;5.60;;;2.60;;
65879;SDS011;52661;51.364;6.054;2024-01-06T12:26:49;7.45;;;2.58;;
65879;SDS011;52661;51.364;6.054;2024-01-06T12:29:16;7.38;;;3.20;;
65879;SDS011;52661;51.364;6.054;2024-01-06T12:31:42;6.65;;;3.20;;
65879;SDS011;52661;51.364;6.054;2024-01-06T12:34:09;4.60;;;2.03;;
65879;SDS011;52661;51.364;6.054;2024-01-06T12:36:38;5.05;;;2.53;;
65879;SDS011;52661;51.364;6.054;2024-01-06T12:39:06;6.18;;;2.97;;
65879;SDS011;52661;51.364;6.054;2024-01-06T12:41:38;4.32;;;3.10;;
65879;SDS011;52661;51.364;6.054;2024-01-06T12:46:32;5.95;;;2.75;;
65879;SDS011;52661;51.364;6.054;2024-01-06T12:48:58;5.75;;;3.17;;
65879;SDS011;52661;51.364;6.054;2024-01-06T12:51:23;9.52;;;2.92;;
65879;SDS011;52661;51.364;6.054;2024-01-06T12:53:48;4.23;;;2.57;;
65879;SDS011;52661;51.364;6.054;2024-01-06T12:56:14;6.20;;;2.70;;
65879;SDS011;52661;51.364;6.054;2024-01-06T12:58:40;3.38;;;1.48;;
65879;SDS011;52661;51.364;6.054;2024-01-06T13:01:06;5.60;;;1.65;;
65879;SDS011;52661;51.364;6.054;2024-01-06T13:03:32;7.70;;;2.92;;
65879;SDS011;52661;51.364;6.054;2024-01-06T13:05:58;6.00;;;2.95;;
65879;SDS011;52661;51.364;6.054;2024-01-06T13:08:23;4.55;;;2.33;;
65879;SDS011;52661;51.364;6.054;2024-01-06T13:10:48;5.43;;;2.13;;
65879;SDS011;52661;51.364;6.054;2024-01-06T13:13:14;8.18;;;3.38;;
65879;SDS011;52661;51.364;6.054;2024-01-06T13:15:40;4.85;;;2.85;;
65879;SDS011;52661;51.364;6.054;2024-01-06T13:18:05;8.27;;;2.95;;
65879;SDS011;52661;51.364;6.054;2024-01-06T13:20:31;6.78;;;3.67;;
65879;SDS011;52661;51.364;6.054;2024-01-06T13:22:57;10.57;;;3.88;;
65879;SDS011;52661;51.364;6.054;2024-01-06T13:25:22;7.80;;;3.20;;
65879;SDS011;52661;51.364;6.054;2024-01-06T13:27:48;10.30;;;3.60;;
65879;SDS011;52661;51.364;6.054;2024-01-06T13:30:15;10.75;;;4.22;;
65879;SDS011;52661;51.364;6.054;2024-01-06T13:32:40;9.20;;;3.47;;
65879;SDS011;52661;51.364;6.054;2024-01-06T13:35:05;9.27;;;4.57;;
65879;SDS011;52661;51.364;6.054;2024-01-06T13:37:32;4.95;;;2.45;;
65879;SDS011;52661;51.364;6.054;2024-01-06T13:39:57;6.55;;;4.28;;
65879;SDS011;52661;51.364;6.054;2024-01-06T13:42:22;9.07;;;3.17;;
65879;SDS011;52661;51.364;6.054;2024-01-06T13:44:48;8.65;;;3.47;;
65879;SDS011;52661;51.364;6.054;2024-01-06T13:47:13;6.67;;;2.93;;
65879;SDS011;52661;51.364;6.054;2024-01-06T13:49:39;6.57;;;2.17;;
65879;SDS011;52661;51.364;6.054;2024-01-06T13:52:05;6.70;;;3.80;;
65879;SDS011;52661;51.364;6.054;2024-01-06T13:54:32;6.82;;;3.22;;
65879;SDS011;52661;51.364;6.054;2024-01-06T13:57:01;5.78;;;3.08;;
65879;SDS011;52661;51.364;6.054;2024-01-06T13:59:27;4.10;;;2.60;;
65879;SDS011;52661;51.364;6.054;2024-01-06T14:01:52;8.77;;;3.78;;
65879;SDS011;52661;51.364;6.054;2024-01-06T14:04:18;10.18;;;2.50;;
65879;SDS011;52661;51.364;6.054;2024-01-06T14:06:44;9.73;;;4.93;;
65879;SDS011;52661;51.364;6.054;2024-01-06T14:09:09;8.83;;;3.67;;
65879;SDS011;52661;51.364;6.054;2024-01-06T14:11:34;10.57;;;4.10;;
65879;SDS011;52661;51.364;6.054;2024-01-06T14:14:01;3.22;;;2.55;;
65879;SDS011;52661;51.364;6.054;2024-01-06T14:16:26;9.20;;;3.53;;
65879;SDS011;52661;51.364;6.054;2024-01-06T14:18:52;7.17;;;2.93;;
65879;SDS011;52661;51.364;6.054;2024-01-06T14:21:17;7.38;;;3.83;;
65879;SDS011;52661;51.364;6.054;2024-01-06T14:23:44;7.78;;;4.15;;
65879;SDS011;52661;51.364;6.054;2024-01-06T14:26:10;6.93;;;3.03;;
65879;SDS011;52661;51.364;6.054;2024-01-06T14:28:36;11.23;;;3.58;;
65879;SDS011;52661;51.364;6.054;2024-01-06T14:31:02;6.97;;;3.45;;
65879;SDS011;52661;51.364;6.054;2024-01-06T14:33:27;6.05;;;3.67;;
65879;SDS011;52661;51.364;6.054;2024-01-06T14:35:52;9.57;;;6.50;;
65879;SDS011;52661;51.364;6.054;2024-01-06T14:38:18;8.25;;;4.50;;
65879;SDS011;52661;51.364;6.054;2024-01-06T14:40:44;5.63;;;2.78;;
65879;SDS011;52661;51.364;6.054;2024-01-06T14:43:09;6.40;;;1.87;;
65879;SDS011;52661;51.364;6.054;2024-01-06T14:45:35;7.65;;;3.47;;
65879;SDS011;52661;51.364;6.054;2024-01-06T14:48:01;5.97;;;2.50;;
65879;SDS011;52661;51.364;6.054;2024-01-06T14:50:26;9.48;;;3.67;;
65879;SDS011;52661;51.364;6.054;2024-01-06T14:52:51;7.00;;;3.53;;